sensor_id;sensor_type;location;lat;lon;timestamp;P1;durP1;ratioP1;P2;durP2;ratioP2
29906;SDS011;16776;50.958;10.994;2023-03-19T00:01:33;1.92;;;1.65;;
29906;SDS011;16776;50.958;10.994;2023-03-19T00:04:00;2.78;;;1.30;;
29906;SDS011;16776;50.958;10.994;2023-03-19T00:06:28;1.48;;;1.27;;
29906;SDS011;16776;50.958;10.994;2023-03-19T00:08:54;5.32;;;1.33;;
29906;SDS011;16776;50.958;10.994;2023-03-19T00:11:21;2.25;;;1.40;;
29906;SDS011;16776;50.958;10.994;2023-03-19T00:13:47;3.20;;;1.20;;
29906;SDS011;16776;50.958;10.994;2023-03-19T00:16:14;2.30;;;1.30;;
29906;SDS011;16776;50.958;10.994;2023-03-19T00:18:46;2.78;;;1.02;;
29906;SDS011;16776;50.958;10.994;2023-03-19T00:21:13;1.52;;;1.33;;
29906;SDS011;16776;50.958;10.994;2023-03-19T00:23:41;1.25;;;1.15;;
29906;SDS011;16776;50.958;10.994;2023-03-19T00:26:08;1.58;;;1.40;;
29906;SDS011;16776;50.958;10.994;2023-03-19T00:28:34;3.55;;;1.20;;
29906;SDS011;16776;50.958;10.994;2023-03-19T00:31:08;1.45;;;0.90;;
29906;SDS011;16776;50.958;10.994;2023-03-19T00:33:35;1.88;;;1.27;;
29906;SDS011;16776;50.958;10.994;2023-03-19T00:36:02;2.45;;;1.02;;
29906;SDS011;16776;50.958;10.994;2023-03-19T00:38:29;1.58;;;1.00;;
29906;SDS011;16776;50.958;10.994;2023-03-19T00:40:58;1.48;;;1.23;;
29906;SDS011;16776;50.958;10.994;2023-03-19T00:43:24;1.50;;;1.00;;
29906;SDS011;16776;50.958;10.994;2023-03-19T00:45:51;1.00;;;0.95;;
29906;SDS011;16776;50.958;10.994;2023-03-19T00:48:17;1.63;;;1.20;;
29906;SDS011;16776;50.958;10.994;2023-03-19T00:50:44;1.92;;;1.58;;
29906;SDS011;16776;50.958;10.994;2023-03-19T00:53:10;2.25;;;1.15;;
29906;SDS011;16776;50.958;10.994;2023-03-19T00:55:37;1.20;;;1.10;;
29906;SDS011;16776;50.958;10.994;2023-03-19T00:58:05;1.40;;;1.30;;
29906;SDS011;16776;50.958;10.994;2023-03-19T01:00:32;4.07;;;1.30;;
29906;SDS011;16776;50.958;10.994;2023-03-19T01:02:59;1.13;;;1.00;;
29906;SDS011;16776;50.958;10.994;2023-03-19T01:05:26;1.10;;;0.95;;
29906;SDS011;16776;50.958;10.994;2023-03-19T01:07:52;1.35;;;1.25;;
29906;SDS011;16776;50.958;10.994;2023-03-19T01:10:19;1.20;;;1.10;;
29906;SDS011;16776;50.958;10.994;2023-03-19T01:12:47;2.00;;;1.10;;
29906;SDS011;16776;50.958;10.994;2023-03-19T01:15:17;1.88;;;1.10;;
29906;SDS011;16776;50.958;10.994;2023-03-19T01:17:44;1.80;;;1.15;;
29906;SDS011;16776;50.958;10.994;2023-03-19T01:20:11;1.00;;;1.00;;
29906;SDS011;16776;50.958;10.994;2023-03-19T01:22:39;0.80;;;0.80;;
29906;SDS011;16776;50.958;10.994;2023-03-19T01:25:07;2.22;;;1.00;;
29906;SDS011;16776;50.958;10.994;2023-03-19T01:27:35;2.03;;;1.10;;
29906;SDS011;16776;50.958;10.994;2023-03-19T01:30:01;1.02;;;0.82;;
29906;SDS011;16776;50.958;10.994;2023-03-19T01:32:29;1.52;;;1.08;;
29906;SDS011;16776;50.958;10.994;2023-03-19T01:34:56;2.58;;;1.30;;
29906;SDS011;16776;50.958;10.994;2023-03-19T01:37:23;2.03;;;1.00;;
29906;SDS011;16776;50.958;10.994;2023-03-19T01:39:49;0.65;;;0.65;;
29906;SDS011;16776;50.958;10.994;2023-03-19T01:42:16;0.95;;;0.93;;
29906;SDS011;16776;50.958;10.994;2023-03-19T01:44:43;1.55;;;0.90;;
29906;SDS011;16776;50.958;10.994;2023-03-19T01:47:13;1.55;;;0.70;;
29906;SDS011;16776;50.958;10.994;2023-03-19T01:49:44;1.63;;;0.97;;
29906;SDS011;16776;50.958;10.994;2023-03-19T01:52:17;1.23;;;1.02;;
29906;SDS011;16776;50.958;10.994;2023-03-19T01:54:45;1.80;;;1.02;;
29906;SDS011;16776;50.958;10.994;2023-03-19T01:57:13;1.77;;;1.00;;
29906;SDS011;16776;50.958;10.994;2023-03-19T01:59:43;2.40;;;1.30;;
29906;SDS011;16776;50.958;10.994;2023-03-19T02:02:14;1.70;;;0.88;;
29906;SDS011;16776;50.958;10.994;2023-03-19T02:04:47;2.05;;;1.25;;
29906;SDS011;16776;50.958;10.994;2023-03-19T02:07:16;1.05;;;1.00;;
29906;SDS011;16776;50.958;10.994;2023-03-19T02:09:43;1.38;;;0.90;;
29906;SDS011;16776;50.958;10.994;2023-03-19T02:12:10;1.05;;;0.95;;
29906;SDS011;16776;50.958;10.994;2023-03-19T02:14:38;0.77;;;0.70;;
29906;SDS011;16776;50.958;10.994;2023-03-19T02:17:05;1.23;;;1.05;;
29906;SDS011;16776;50.958;10.994;2023-03-19T02:19:34;0.93;;;0.80;;
29906;SDS011;16776;50.958;10.994;2023-03-19T02:22:10;2.10;;;1.15;;
29906;SDS011;16776;50.958;10.994;2023-03-19T02:24:39;2.00;;;1.00;;
29906;SDS011;16776;50.958;10.994;2023-03-19T02:27:16;3.67;;;1.30;;
29906;SDS011;16776;50.958;10.994;2023-03-19T02:29:43;3.28;;;1.10;;
29906;SDS011;16776;50.958;10.994;2023-03-19T02:32:09;2.08;;;0.90;;
29906;SDS011;16776;50.958;10.994;2023-03-19T02:34:37;1.02;;;0.90;;
29906;SDS011;16776;50.958;10.994;2023-03-19T02:37:10;1.40;;;1.13;;
29906;SDS011;16776;50.958;10.994;2023-03-19T02:39:45;1.27;;;1.17;;
29906;SDS011;16776;50.958;10.994;2023-03-19T02:42:17;2.17;;;1.42;;
29906;SDS011;16776;50.958;10.994;2023-03-19T02:44:46;1.33;;;1.10;;
29906;SDS011;16776;50.958;10.994;2023-03-19T02:47:13;1.13;;;0.88;;
29906;SDS011;16776;50.958;10.994;2023-03-19T02:49:40;1.67;;;1.52;;
29906;SDS011;16776;50.958;10.994;2023-03-19T02:52:07;1.42;;;1.17;;
29906;SDS011;16776;50.958;10.994;2023-03-19T02:54:34;2.08;;;1.30;;
29906;SDS011;16776;50.958;10.994;2023-03-19T02:57:00;1.35;;;1.15;;
29906;SDS011;16776;50.958;10.994;2023-03-19T02:59:29;1.13;;;1.02;;
29906;SDS011;16776;50.958;10.994;2023-03-19T03:01:55;1.77;;;1.35;;
29906;SDS011;16776;50.958;10.994;2023-03-19T03:04:22;1.30;;;0.98;;
29906;SDS011;16776;50.958;10.994;2023-03-19T03:06:49;0.98;;;0.98;;
29906;SDS011;16776;50.958;10.994;2023-03-19T03:09:15;1.67;;;1.02;;
29906;SDS011;16776;50.958;10.994;2023-03-19T03:11:42;1.58;;;1.40;;
29906;SDS011;16776;50.958;10.994;2023-03-19T03:14:09;1.30;;;1.20;;
29906;SDS011;16776;50.958;10.994;2023-03-19T03:16:37;1.70;;;1.10;;
29906;SDS011;16776;50.958;10.994;2023-03-19T03:19:04;1.52;;;1.13;;
29906;SDS011;16776;50.958;10.994;2023-03-19T03:21:31;2.72;;;1.33;;
29906;SDS011;16776;50.958;10.994;2023-03-19T03:23:58;1.73;;;1.55;;
29906;SDS011;16776;50.958;10.994;2023-03-19T03:26:25;1.85;;;1.20;;
29906;SDS011;16776;50.958;10.994;2023-03-19T03:28:52;1.63;;;1.48;;
29906;SDS011;16776;50.958;10.994;2023-03-19T03:31:18;2.45;;;1.25;;
29906;SDS011;16776;50.958;10.994;2023-03-19T03:33:46;2.88;;;1.48;;
29906;SDS011;16776;50.958;10.994;2023-03-19T03:36:15;1.73;;;1.35;;
29906;SDS011;16776;50.958;10.994;2023-03-19T03:38:44;2.50;;;1.30;;
29906;SDS011;16776;50.958;10.994;2023-03-19T03:41:11;1.40;;;1.20;;
29906;SDS011;16776;50.958;10.994;2023-03-19T03:43:37;2.10;;;1.42;;
29906;SDS011;16776;50.958;10.994;2023-03-19T03:46:05;1.40;;;1.30;;
29906;SDS011;16776;50.958;10.994;2023-03-19T03:48:31;1.58;;;1.30;;
29906;SDS011;16776;50.958;10.994;2023-03-19T03:50:59;2.50;;;1.30;;
29906;SDS011;16776;50.958;10.994;2023-03-19T03:53:27;2.78;;;1.27;;
29906;SDS011;16776;50.958;10.994;2023-03-19T03:55:53;1.55;;;1.17;;
29906;SDS011;16776;50.958;10.994;2023-03-19T03:58:20;1.98;;;1.52;;
29906;SDS011;16776;50.958;10.994;2023-03-19T04:00:48;1.40;;;1.30;;
29906;SDS011;16776;50.958;10.994;2023-03-19T04:03:14;1.85;;;1.20;;
29906;SDS011;16776;50.958;10.994;2023-03-19T04:05:42;1.52;;;1.42;;
29906;SDS011;16776;50.958;10.994;2023-03-19T04:08:10;1.48;;;1.38;;
29906;SDS011;16776;50.958;10.994;2023-03-19T04:10:38;1.58;;;1.20;;
29906;SDS011;16776;50.958;10.994;2023-03-19T04:13:06;3.20;;;1.73;;
29906;SDS011;16776;50.958;10.994;2023-03-19T04:15:33;2.60;;;1.63;;
29906;SDS011;16776;50.958;10.994;2023-03-19T04:17:59;2.00;;;1.90;;
29906;SDS011;16776;50.958;10.994;2023-03-19T04:20:26;2.35;;;1.50;;
29906;SDS011;16776;50.958;10.994;2023-03-19T04:22:55;2.63;;;1.55;;
29906;SDS011;16776;50.958;10.994;2023-03-19T04:25:25;4.57;;;1.52;;
29906;SDS011;16776;50.958;10.994;2023-03-19T04:27:55;2.85;;;1.63;;
29906;SDS011;16776;50.958;10.994;2023-03-19T04:30:24;1.95;;;1.27;;
29906;SDS011;16776;50.958;10.994;2023-03-19T04:32:51;2.72;;;1.27;;
29906;SDS011;16776;50.958;10.994;2023-03-19T04:35:18;2.05;;;1.63;;
29906;SDS011;16776;50.958;10.994;2023-03-19T04:37:45;1.67;;;1.33;;
29906;SDS011;16776;50.958;10.994;2023-03-19T04:40:13;2.08;;;1.25;;
29906;SDS011;16776;50.958;10.994;2023-03-19T04:42:41;3.92;;;1.33;;
29906;SDS011;16776;50.958;10.994;2023-03-19T04:45:09;2.20;;;1.75;;
29906;SDS011;16776;50.958;10.994;2023-03-19T04:47:36;2.85;;;1.48;;
29906;SDS011;16776;50.958;10.994;2023-03-19T04:50:03;2.30;;;1.90;;
29906;SDS011;16776;50.958;10.994;2023-03-19T04:52:30;2.58;;;2.13;;
29906;SDS011;16776;50.958;10.994;2023-03-19T04:54:57;4.00;;;2.30;;
29906;SDS011;16776;50.958;10.994;2023-03-19T04:57:24;2.67;;;2.00;;
29906;SDS011;16776;50.958;10.994;2023-03-19T04:59:52;1.90;;;1.70;;
29906;SDS011;16776;50.958;10.994;2023-03-19T05:02:19;2.55;;;1.40;;
29906;SDS011;16776;50.958;10.994;2023-03-19T05:04:46;2.22;;;1.48;;
29906;SDS011;16776;50.958;10.994;2023-03-19T05:07:15;2.35;;;1.33;;
29906;SDS011;16776;50.958;10.994;2023-03-19T05:09:42;2.80;;;1.60;;
29906;SDS011;16776;50.958;10.994;2023-03-19T05:12:12;3.75;;;1.42;;
29906;SDS011;16776;50.958;10.994;2023-03-19T05:14:39;2.20;;;1.60;;
29906;SDS011;16776;50.958;10.994;2023-03-19T05:17:09;1.15;;;1.00;;
29906;SDS011;16776;50.958;10.994;2023-03-19T05:19:36;1.58;;;1.30;;
29906;SDS011;16776;50.958;10.994;2023-03-19T05:22:03;4.00;;;1.60;;
29906;SDS011;16776;50.958;10.994;2023-03-19T05:24:32;3.20;;;1.58;;
29906;SDS011;16776;50.958;10.994;2023-03-19T05:26:59;1.60;;;1.48;;
29906;SDS011;16776;50.958;10.994;2023-03-19T05:29:25;1.92;;;1.63;;
29906;SDS011;16776;50.958;10.994;2023-03-19T05:31:52;1.92;;;1.50;;
29906;SDS011;16776;50.958;10.994;2023-03-19T05:34:20;1.30;;;1.20;;
29906;SDS011;16776;50.958;10.994;2023-03-19T05:36:47;3.50;;;1.33;;
29906;SDS011;16776;50.958;10.994;2023-03-19T05:39:14;2.53;;;1.75;;
29906;SDS011;16776;50.958;10.994;2023-03-19T05:41:40;1.60;;;1.50;;
29906;SDS011;16776;50.958;10.994;2023-03-19T05:44:07;1.92;;;1.35;;
29906;SDS011;16776;50.958;10.994;2023-03-19T05:46:34;2.63;;;1.90;;
29906;SDS011;16776;50.958;10.994;2023-03-19T05:49:00;1.77;;;1.67;;
29906;SDS011;16776;50.958;10.994;2023-03-19T05:51:31;4.10;;;1.83;;
29906;SDS011;16776;50.958;10.994;2023-03-19T05:53:57;2.38;;;1.80;;
29906;SDS011;16776;50.958;10.994;2023-03-19T05:56:24;3.15;;;1.80;;
29906;SDS011;16776;50.958;10.994;2023-03-19T05:58:53;2.45;;;2.03;;
29906;SDS011;16776;50.958;10.994;2023-03-19T06:01:19;2.20;;;1.88;;
29906;SDS011;16776;50.958;10.994;2023-03-19T06:03:46;1.98;;;1.63;;
29906;SDS011;16776;50.958;10.994;2023-03-19T06:06:13;2.30;;;1.80;;
29906;SDS011;16776;50.958;10.994;2023-03-19T06:08:43;2.58;;;2.08;;
29906;SDS011;16776;50.958;10.994;2023-03-19T06:11:10;3.17;;;1.90;;
29906;SDS011;16776;50.958;10.994;2023-03-19T06:13:37;2.28;;;1.50;;
29906;SDS011;16776;50.958;10.994;2023-03-19T06:16:05;1.60;;;1.40;;
29906;SDS011;16776;50.958;10.994;2023-03-19T06:18:34;3.25;;;1.52;;
29906;SDS011;16776;50.958;10.994;2023-03-19T06:21:01;3.92;;;1.80;;
29906;SDS011;16776;50.958;10.994;2023-03-19T06:23:28;1.98;;;1.70;;
29906;SDS011;16776;50.958;10.994;2023-03-19T06:25:55;2.33;;;1.85;;
29906;SDS011;16776;50.958;10.994;2023-03-19T06:28:22;2.10;;;1.65;;
29906;SDS011;16776;50.958;10.994;2023-03-19T06:30:49;2.10;;;1.38;;
29906;SDS011;16776;50.958;10.994;2023-03-19T06:33:15;2.50;;;1.67;;
29906;SDS011;16776;50.958;10.994;2023-03-19T06:35:42;2.05;;;1.50;;
29906;SDS011;16776;50.958;10.994;2023-03-19T06:38:12;2.03;;;1.40;;
29906;SDS011;16776;50.958;10.994;2023-03-19T06:40:38;2.08;;;1.90;;
29906;SDS011;16776;50.958;10.994;2023-03-19T06:43:06;3.35;;;2.00;;
29906;SDS011;16776;50.958;10.994;2023-03-19T06:45:33;2.17;;;1.67;;
29906;SDS011;16776;50.958;10.994;2023-03-19T06:48:03;2.47;;;1.70;;
29906;SDS011;16776;50.958;10.994;2023-03-19T06:50:30;2.33;;;1.83;;
29906;SDS011;16776;50.958;10.994;2023-03-19T06:52:56;2.75;;;2.03;;
29906;SDS011;16776;50.958;10.994;2023-03-19T06:55:23;1.95;;;1.70;;
29906;SDS011;16776;50.958;10.994;2023-03-19T06:57:50;2.13;;;1.80;;
29906;SDS011;16776;50.958;10.994;2023-03-19T07:00:19;2.80;;;1.65;;
29906;SDS011;16776;50.958;10.994;2023-03-19T07:02:45;2.03;;;1.73;;
29906;SDS011;16776;50.958;10.994;2023-03-19T07:05:15;4.20;;;1.90;;
29906;SDS011;16776;50.958;10.994;2023-03-19T07:07:42;1.92;;;1.58;;
29906;SDS011;16776;50.958;10.994;2023-03-19T07:10:09;1.50;;;1.25;;
29906;SDS011;16776;50.958;10.994;2023-03-19T07:12:36;1.42;;;1.20;;
29906;SDS011;16776;50.958;10.994;2023-03-19T07:15:09;2.40;;;1.77;;
29906;SDS011;16776;50.958;10.994;2023-03-19T07:17:38;2.40;;;1.85;;
29906;SDS011;16776;50.958;10.994;2023-03-19T07:20:05;2.20;;;2.00;;
29906;SDS011;16776;50.958;10.994;2023-03-19T07:22:32;7.00;;;1.90;;
29906;SDS011;16776;50.958;10.994;2023-03-19T07:24:58;1.95;;;1.50;;
29906;SDS011;16776;50.958;10.994;2023-03-19T07:27:25;4.20;;;2.05;;
29906;SDS011;16776;50.958;10.994;2023-03-19T07:29:51;3.10;;;1.88;;
29906;SDS011;16776;50.958;10.994;2023-03-19T07:32:20;2.95;;;2.53;;
29906;SDS011;16776;50.958;10.994;2023-03-19T07:34:49;2.83;;;2.22;;
29906;SDS011;16776;50.958;10.994;2023-03-19T07:37:17;2.85;;;2.20;;
29906;SDS011;16776;50.958;10.994;2023-03-19T07:39:43;4.25;;;2.00;;
29906;SDS011;16776;50.958;10.994;2023-03-19T07:42:10;2.08;;;1.80;;
29906;SDS011;16776;50.958;10.994;2023-03-19T07:44:36;2.00;;;1.70;;
29906;SDS011;16776;50.958;10.994;2023-03-19T07:47:03;2.72;;;2.03;;
29906;SDS011;16776;50.958;10.994;2023-03-19T07:49:30;2.03;;;1.83;;
29906;SDS011;16776;50.958;10.994;2023-03-19T07:51:58;2.13;;;1.70;;
29906;SDS011;16776;50.958;10.994;2023-03-19T07:54:24;2.35;;;1.65;;
29906;SDS011;16776;50.958;10.994;2023-03-19T07:56:51;3.00;;;1.92;;
29906;SDS011;16776;50.958;10.994;2023-03-19T07:59:17;3.67;;;2.53;;
29906;SDS011;16776;50.958;10.994;2023-03-19T08:01:44;2.63;;;1.77;;
29906;SDS011;16776;50.958;10.994;2023-03-19T08:04:10;2.10;;;1.88;;
29906;SDS011;16776;50.958;10.994;2023-03-19T08:06:37;3.97;;;2.10;;
29906;SDS011;16776;50.958;10.994;2023-03-19T08:09:08;3.75;;;2.17;;
29906;SDS011;16776;50.958;10.994;2023-03-19T08:11:34;3.40;;;2.30;;
29906;SDS011;16776;50.958;10.994;2023-03-19T08:14:02;2.15;;;1.80;;
29906;SDS011;16776;50.958;10.994;2023-03-19T08:16:28;2.72;;;1.60;;
29906;SDS011;16776;50.958;10.994;2023-03-19T08:18:55;2.70;;;1.80;;
29906;SDS011;16776;50.958;10.994;2023-03-19T08:21:21;2.10;;;1.70;;
29906;SDS011;16776;50.958;10.994;2023-03-19T08:23:48;1.95;;;1.75;;
29906;SDS011;16776;50.958;10.994;2023-03-19T08:26:19;2.45;;;1.88;;
29906;SDS011;16776;50.958;10.994;2023-03-19T08:28:46;3.10;;;2.10;;
29906;SDS011;16776;50.958;10.994;2023-03-19T08:31:13;5.88;;;2.28;;
29906;SDS011;16776;50.958;10.994;2023-03-19T08:33:42;2.13;;;1.90;;
29906;SDS011;16776;50.958;10.994;2023-03-19T08:36:09;2.00;;;1.45;;
29906;SDS011;16776;50.958;10.994;2023-03-19T08:38:37;2.05;;;1.80;;
29906;SDS011;16776;50.958;10.994;2023-03-19T08:41:04;2.53;;;1.75;;
29906;SDS011;16776;50.958;10.994;2023-03-19T08:43:33;2.40;;;1.50;;
29906;SDS011;16776;50.958;10.994;2023-03-19T08:46:02;3.50;;;1.75;;
29906;SDS011;16776;50.958;10.994;2023-03-19T08:48:30;1.80;;;1.58;;
29906;SDS011;16776;50.958;10.994;2023-03-19T08:50:57;1.80;;;1.65;;
29906;SDS011;16776;50.958;10.994;2023-03-19T08:53:26;2.00;;;1.60;;
29906;SDS011;16776;50.958;10.994;2023-03-19T08:55:53;2.90;;;1.90;;
29906;SDS011;16776;50.958;10.994;2023-03-19T08:58:21;3.35;;;2.50;;
29906;SDS011;16776;50.958;10.994;2023-03-19T09:00:49;2.65;;;2.03;;
29906;SDS011;16776;50.958;10.994;2023-03-19T09:03:16;3.92;;;2.03;;
29906;SDS011;16776;50.958;10.994;2023-03-19T09:05:44;1.85;;;1.65;;
29906;SDS011;16776;50.958;10.994;2023-03-19T09:08:11;4.13;;;2.17;;
29906;SDS011;16776;50.958;10.994;2023-03-19T09:10:38;3.58;;;1.80;;
29906;SDS011;16776;50.958;10.994;2023-03-19T09:13:05;3.15;;;1.70;;
29906;SDS011;16776;50.958;10.994;2023-03-19T09:15:32;2.58;;;1.45;;
29906;SDS011;16776;50.958;10.994;2023-03-19T09:17:59;1.75;;;1.60;;
29906;SDS011;16776;50.958;10.994;2023-03-19T09:20:26;2.45;;;1.42;;
29906;SDS011;16776;50.958;10.994;2023-03-19T09:22:53;3.03;;;2.10;;
29906;SDS011;16776;50.958;10.994;2023-03-19T09:25:19;3.40;;;1.92;;
29906;SDS011;16776;50.958;10.994;2023-03-19T09:27:46;3.90;;;1.92;;
29906;SDS011;16776;50.958;10.994;2023-03-19T09:30:13;3.08;;;2.20;;
29906;SDS011;16776;50.958;10.994;2023-03-19T09:32:40;2.53;;;2.00;;
29906;SDS011;16776;50.958;10.994;2023-03-19T09:35:10;3.10;;;1.70;;
29906;SDS011;16776;50.958;10.994;2023-03-19T09:37:37;2.85;;;1.73;;
29906;SDS011;16776;50.958;10.994;2023-03-19T09:40:04;2.78;;;1.65;;
29906;SDS011;16776;50.958;10.994;2023-03-19T09:42:39;1.58;;;1.48;;
29906;SDS011;16776;50.958;10.994;2023-03-19T09:45:15;3.10;;;1.58;;
29906;SDS011;16776;50.958;10.994;2023-03-19T09:47:43;2.25;;;1.80;;
29906;SDS011;16776;50.958;10.994;2023-03-19T09:50:16;3.28;;;2.03;;
29906;SDS011;16776;50.958;10.994;2023-03-19T09:55:16;2.53;;;1.70;;
29906;SDS011;16776;50.958;10.994;2023-03-19T09:57:54;2.25;;;2.05;;
29906;SDS011;16776;50.958;10.994;2023-03-19T10:00:23;4.85;;;1.88;;
29906;SDS011;16776;50.958;10.994;2023-03-19T10:02:53;2.05;;;1.38;;
29906;SDS011;16776;50.958;10.994;2023-03-19T10:05:31;2.88;;;1.48;;
29906;SDS011;16776;50.958;10.994;2023-03-19T10:08:28;5.70;;;2.00;;
29906;SDS011;16776;50.958;10.994;2023-03-19T10:11:13;2.95;;;1.77;;
29906;SDS011;16776;50.958;10.994;2023-03-19T10:13:58;3.55;;;1.58;;
29906;SDS011;16776;50.958;10.994;2023-03-19T10:16:38;1.70;;;1.30;;
29906;SDS011;16776;50.958;10.994;2023-03-19T10:19:08;1.92;;;1.65;;
29906;SDS011;16776;50.958;10.994;2023-03-19T10:24:12;3.00;;;1.90;;
29906;SDS011;16776;50.958;10.994;2023-03-19T10:26:40;2.00;;;1.90;;
29906;SDS011;16776;50.958;10.994;2023-03-19T10:29:13;2.65;;;1.77;;
29906;SDS011;16776;50.958;10.994;2023-03-19T10:31:42;2.25;;;1.80;;
29906;SDS011;16776;50.958;10.994;2023-03-19T10:37:02;2.33;;;1.73;;
29906;SDS011;16776;50.958;10.994;2023-03-19T10:39:31;2.60;;;1.80;;
29906;SDS011;16776;50.958;10.994;2023-03-19T10:42:06;2.08;;;1.60;;
29906;SDS011;16776;50.958;10.994;2023-03-19T10:44:44;1.92;;;1.73;;
29906;SDS011;16776;50.958;10.994;2023-03-19T10:47:15;2.80;;;1.63;;
29906;SDS011;16776;50.958;10.994;2023-03-19T10:49:44;1.60;;;1.50;;
29906;SDS011;16776;50.958;10.994;2023-03-19T10:52:17;2.95;;;1.60;;
29906;SDS011;16776;50.958;10.994;2023-03-19T10:54:47;1.40;;;1.20;;
29906;SDS011;16776;50.958;10.994;2023-03-19T10:59:48;2.53;;;1.55;;
29906;SDS011;16776;50.958;10.994;2023-03-19T11:02:17;2.58;;;1.42;;
29906;SDS011;16776;50.958;10.994;2023-03-19T11:04:46;1.80;;;1.35;;
29906;SDS011;16776;50.958;10.994;2023-03-19T11:07:18;1.48;;;1.38;;
29906;SDS011;16776;50.958;10.994;2023-03-19T11:09:46;1.75;;;1.10;;
29906;SDS011;16776;50.958;10.994;2023-03-19T11:12:16;1.27;;;1.00;;
29906;SDS011;16776;50.958;10.994;2023-03-19T11:14:45;1.67;;;1.00;;
29906;SDS011;16776;50.958;10.994;2023-03-19T11:17:19;1.30;;;1.20;;
29906;SDS011;16776;50.958;10.994;2023-03-19T11:19:57;1.17;;;0.93;;
29906;SDS011;16776;50.958;10.994;2023-03-19T11:22:26;3.08;;;1.42;;
29906;SDS011;16776;50.958;10.994;2023-03-19T11:24:56;1.42;;;1.33;;
29906;SDS011;16776;50.958;10.994;2023-03-19T11:27:26;1.10;;;1.00;;
29906;SDS011;16776;50.958;10.994;2023-03-19T11:29:56;2.42;;;1.00;;
29906;SDS011;16776;50.958;10.994;2023-03-19T11:32:32;1.65;;;1.55;;
29906;SDS011;16776;50.958;10.994;2023-03-19T11:35:25;1.65;;;1.55;;
29906;SDS011;16776;50.958;10.994;2023-03-19T11:38:00;1.98;;;1.50;;
29906;SDS011;16776;50.958;10.994;2023-03-19T11:40:31;3.43;;;1.20;;
29906;SDS011;16776;50.958;10.994;2023-03-19T11:43:11;2.05;;;1.58;;
29906;SDS011;16776;50.958;10.994;2023-03-19T11:46:07;2.45;;;1.20;;
29906;SDS011;16776;50.958;10.994;2023-03-19T11:48:48;3.33;;;1.50;;
29906;SDS011;16776;50.958;10.994;2023-03-19T11:51:37;1.88;;;1.10;;
29906;SDS011;16776;50.958;10.994;2023-03-19T11:54:15;3.15;;;1.33;;
29906;SDS011;16776;50.958;10.994;2023-03-19T11:56:49;2.17;;;1.15;;
29906;SDS011;16776;50.958;10.994;2023-03-19T11:59:30;2.58;;;1.27;;
29906;SDS011;16776;50.958;10.994;2023-03-19T12:07:54;1.92;;;1.27;;
29906;SDS011;16776;50.958;10.994;2023-03-19T12:10:31;1.75;;;1.27;;
29906;SDS011;16776;50.958;10.994;2023-03-19T12:13:08;1.15;;;1.00;;
29906;SDS011;16776;50.958;10.994;2023-03-19T12:15:46;1.45;;;1.20;;
29906;SDS011;16776;50.958;10.994;2023-03-19T12:18:24;3.85;;;1.75;;
29906;SDS011;16776;50.958;10.994;2023-03-19T12:21:13;2.67;;;1.33;;
29906;SDS011;16776;50.958;10.994;2023-03-19T12:23:48;1.33;;;1.00;;
29906;SDS011;16776;50.958;10.994;2023-03-19T12:26:26;4.53;;;1.50;;
29906;SDS011;16776;50.958;10.994;2023-03-19T12:29:04;1.42;;;1.33;;
29906;SDS011;16776;50.958;10.994;2023-03-19T12:31:41;1.55;;;1.42;;
29906;SDS011;16776;50.958;10.994;2023-03-19T12:34:23;3.53;;;1.42;;
29906;SDS011;16776;50.958;10.994;2023-03-19T12:37:04;2.17;;;1.05;;
29906;SDS011;16776;50.958;10.994;2023-03-19T12:39:39;1.65;;;1.20;;
29906;SDS011;16776;50.958;10.994;2023-03-19T12:42:13;1.38;;;1.00;;
29906;SDS011;16776;50.958;10.994;2023-03-19T12:44:45;0.90;;;0.75;;
29906;SDS011;16776;50.958;10.994;2023-03-19T12:47:19;2.63;;;1.20;;
29906;SDS011;16776;50.958;10.994;2023-03-19T12:49:50;1.20;;;0.98;;
29906;SDS011;16776;50.958;10.994;2023-03-19T12:52:22;0.80;;;0.80;;
29906;SDS011;16776;50.958;10.994;2023-03-19T12:54:54;1.45;;;1.00;;
29906;SDS011;16776;50.958;10.994;2023-03-19T12:57:28;1.48;;;0.70;;
29906;SDS011;16776;50.958;10.994;2023-03-19T13:00:02;1.75;;;0.98;;
29906;SDS011;16776;50.958;10.994;2023-03-19T13:02:34;1.05;;;0.90;;
29906;SDS011;16776;50.958;10.994;2023-03-19T13:05:08;0.77;;;0.60;;
29906;SDS011;16776;50.958;10.994;2023-03-19T13:07:57;1.08;;;0.73;;
29906;SDS011;16776;50.958;10.994;2023-03-19T13:10:27;0.70;;;0.70;;
29906;SDS011;16776;50.958;10.994;2023-03-19T13:12:57;1.13;;;0.75;;
29906;SDS011;16776;50.958;10.994;2023-03-19T13:15:32;0.80;;;0.55;;
29906;SDS011;16776;50.958;10.994;2023-03-19T13:18:04;0.73;;;0.60;;
29906;SDS011;16776;50.958;10.994;2023-03-19T13:20:47;1.17;;;0.95;;
29906;SDS011;16776;50.958;10.994;2023-03-19T13:23:23;1.30;;;0.80;;
29906;SDS011;16776;50.958;10.994;2023-03-19T13:25:53;1.00;;;0.90;;
29906;SDS011;16776;50.958;10.994;2023-03-19T13:28:25;0.73;;;0.63;;
29906;SDS011;16776;50.958;10.994;2023-03-19T13:30:58;0.80;;;0.60;;
29906;SDS011;16776;50.958;10.994;2023-03-19T13:33:25;0.60;;;0.60;;
29906;SDS011;16776;50.958;10.994;2023-03-19T13:35:59;1.05;;;0.80;;
29906;SDS011;16776;50.958;10.994;2023-03-19T13:38:32;0.80;;;0.60;;
29906;SDS011;16776;50.958;10.994;2023-03-19T13:41:03;0.60;;;0.60;;
29906;SDS011;16776;50.958;10.994;2023-03-19T13:43:41;2.15;;;0.70;;
29906;SDS011;16776;50.958;10.994;2023-03-19T13:46:36;1.30;;;0.75;;
29906;SDS011;16776;50.958;10.994;2023-03-19T13:49:09;2.55;;;1.15;;
29906;SDS011;16776;50.958;10.994;2023-03-19T13:51:52;1.50;;;0.73;;
29906;SDS011;16776;50.958;10.994;2023-03-19T13:54:22;0.60;;;0.60;;
29906;SDS011;16776;50.958;10.994;2023-03-19T13:57:16;1.48;;;0.80;;
29906;SDS011;16776;50.958;10.994;2023-03-19T13:59:59;0.95;;;0.52;;
29906;SDS011;16776;50.958;10.994;2023-03-19T14:03:05;1.13;;;0.90;;
29906;SDS011;16776;50.958;10.994;2023-03-19T14:05:46;1.40;;;0.70;;
29906;SDS011;16776;50.958;10.994;2023-03-19T14:08:15;1.80;;;0.75;;
29906;SDS011;16776;50.958;10.994;2023-03-19T14:10:46;0.68;;;0.68;;
29906;SDS011;16776;50.958;10.994;2023-03-19T14:13:17;0.65;;;0.47;;
29906;SDS011;16776;50.958;10.994;2023-03-19T14:15:54;0.95;;;0.60;;
29906;SDS011;16776;50.958;10.994;2023-03-19T14:18:29;0.73;;;0.50;;
29906;SDS011;16776;50.958;10.994;2023-03-19T14:20:58;1.67;;;0.80;;
29906;SDS011;16776;50.958;10.994;2023-03-19T14:23:29;0.90;;;0.60;;
29906;SDS011;16776;50.958;10.994;2023-03-19T14:26:00;1.77;;;1.00;;
29906;SDS011;16776;50.958;10.994;2023-03-19T14:28:34;1.15;;;0.90;;
29906;SDS011;16776;50.958;10.994;2023-03-19T14:31:06;1.42;;;0.90;;
29906;SDS011;16776;50.958;10.994;2023-03-19T14:33:47;2.53;;;1.13;;
29906;SDS011;16776;50.958;10.994;2023-03-19T14:36:18;0.80;;;0.60;;
29906;SDS011;16776;50.958;10.994;2023-03-19T14:38:48;0.55;;;0.50;;
29906;SDS011;16776;50.958;10.994;2023-03-19T14:41:19;0.60;;;0.57;;
29906;SDS011;16776;50.958;10.994;2023-03-19T14:44:01;2.15;;;0.80;;
29906;SDS011;16776;50.958;10.994;2023-03-19T14:46:45;0.60;;;0.60;;
29906;SDS011;16776;50.958;10.994;2023-03-19T14:49:37;0.63;;;0.60;;
29906;SDS011;16776;50.958;10.994;2023-03-19T14:52:27;1.73;;;1.17;;
29906;SDS011;16776;50.958;10.994;2023-03-19T14:54:57;0.93;;;0.73;;
29906;SDS011;16776;50.958;10.994;2023-03-19T14:57:27;0.73;;;0.70;;
29906;SDS011;16776;50.958;10.994;2023-03-19T14:59:56;1.33;;;0.77;;
29906;SDS011;16776;50.958;10.994;2023-03-19T15:02:30;0.70;;;0.70;;
29906;SDS011;16776;50.958;10.994;2023-03-19T15:05:00;2.13;;;0.50;;
29906;SDS011;16776;50.958;10.994;2023-03-19T15:07:31;2.05;;;0.60;;